Impacts TAF Board
For situational awareness. Not to be used for flight planning purposes.
IDs:

KIWA - Phoenix/Mesa Gateway, AZ, US

Issued at 1120 UTC 30 Oct 2020
Updated at 1632 UTC 30 Oct 2020
Potential Impact None Slight Moderate High
Time1547Z 30/17Z 30/18Z 30/19Z 30/20Z 30/21Z 30/22Z 30/23Z 31/00Z 31/01Z 31/02Z 31/03Z 31/04Z 31/05Z>>
Type OBS PRVL PRVL PRVL PRVL PRVL PRVL PRVL PRVL PRVL PRVL PRVL PRVL PRVL
VIS 10 >6 >6 >6 >6 >6 >6 >6 >6 >6 >6 >6 >6 >6
CIG -- -- -- -- -- -- -- -- -- -- -- -- -- --
Cover SKC FEW FEW FEW FEW FEW FEW FEW FEW FEW FEW FEW FEW FEW
FltCat VFR VFR VFR VFR VFR VFR VFR VFR VFR VFR VFR VFR VFR VFR
WX -- -- -- -- -- -- -- -- -- -- -- -- -- --
WDir VRB 120 120 120 120 120 VRB VRB VRB VRB VRB VRB VRB VRB
WSpd 0 6 6 6 6 6 5 5 5 5 5 5 5 5
WGst -- -- -- -- -- -- -- -- -- -- -- -- -- --
Raw TAF
KIWA 301120Z 3012/3112 12006KT P6SM FEW180 FEW250
  FM302200 VRB05KT P6SM FEW250
  FM310600 12005KT P6SM SCT250


Raw METAR
KIWA 301547Z 00000KT 10SM SKC 18/01 A3008
KIWA 301450Z 11004KT 10SM FEW150 13/M02 A3007
KIWA 301350Z 09005KT 10SM FW150 13/00 A3005

METAR Board
Radar Display
Forecast Discussion
For situational awareness. Not to be used for flight planning purposes.